PWSweather.com
Personal Weather Stations
Station Observations

SkegnessGB

Lat: 53.147585, Lon: 0.345774

Elevation: 18

Station Type: Fine Offset WH3080

http://www.skegnessweather.info/

High Low Average
Temperature 53.6°F12.0°C 41.2°F5.1°C 48.2°F9.0°C
Dew Point 49.5°F9.7°C 34.4°F1.3°C 43.4°F6.3°C
Winds 8.6 mph 13.8 kmh 0.3 mph 0.5 kmh 5.0 mph WNW8.0 kmh WNW
Wind Gusts 19.9 mph32.0 kmh 2.3 mph3.7 kmh 10.0 mph16.1 kmh
Humidity 90% 70% 83%
Pressure 29.69 in1005.4 mb 29.47 in998.0 mb -
Precipitation 0.14 in3.6 mm - -
Hour Temp Dew Point Humidity Winds Wind Gusts Pressure Precip Precip Rate Daily Precip Total
12:00 AM 51.1°F10.6°C 47.4°F8.6°C 87% 5.6 mph WNW9.0 kmh WNW 13.8 mph22.2 kmh 29.69 in1005.4 mb 0.00 in0.0 mm 0.00 in0.0 mm 0.00 in0.0 mm
12:12 AM 50.7°F10.4°C 47.0°F8.3°C 87% 4.4 mph WNW7.1 kmh WNW 8.4 mph13.5 kmh 29.69 in1005.4 mb 0.00 in0.0 mm 0.00 in0.0 mm 0.00 in0.0 mm
12:24 AM 50.5°F10.3°C 47.1°F8.4°C 88% 3.5 mph W5.6 kmh W 7.0 mph11.3 kmh 29.69 in1005.4 mb 0.00 in0.0 mm 0.00 in0.0 mm 0.00 in0.0 mm
12:36 AM 50.4°F10.2°C 46.9°F8.3°C 88% 3.9 mph WNW6.3 kmh WNW 8.4 mph13.5 kmh 29.68 in1005.1 mb 0.01 in0.3 mm 0.05 in1.3 mm 0.01 in0.3 mm
12:48 AM 50.2°F10.1°C 47.1°F8.4°C 89% 4.2 mph WNW6.8 kmh WNW 8.4 mph13.5 kmh 29.68 in1005.1 mb 0.01 in0.3 mm 0.00 in0.0 mm 0.01 in0.3 mm
01:00 AM 50.2°F10.1°C 47.1°F8.4°C 89% 4.5 mph WNW7.2 kmh WNW 9.3 mph15.0 kmh 29.67 in1004.7 mb 0.02 in0.5 mm 0.01 in0.3 mm 0.02 in0.5 mm
01:12 AM 50.4°F10.2°C 47.2°F8.4°C 89% 5.5 mph NW8.9 kmh NW 10.8 mph17.4 kmh 29.66 in1004.4 mb 0.02 in0.5 mm 0.00 in0.0 mm 0.02 in0.5 mm
01:24 AM 50.7°F10.4°C 47.0°F8.3°C 87% 6.7 mph WNW10.8 kmh WNW 13.8 mph22.2 kmh 29.66 in1004.4 mb 0.02 in0.5 mm 0.00 in0.0 mm 0.02 in0.5 mm
01:36 AM 50.9°F10.5°C 46.9°F8.3°C 86% 5.6 mph WNW9.0 kmh WNW 10.8 mph17.4 kmh 29.66 in1004.4 mb 0.01 in0.3 mm 0.00 in0.0 mm 0.02 in0.5 mm
01:48 AM 50.9°F10.5°C 46.6°F8.1°C 85% 5.5 mph WNW8.9 kmh WNW 11.5 mph18.5 kmh 29.65 in1004.1 mb 0.01 in0.3 mm 0.00 in0.0 mm 0.02 in0.5 mm
02:00 AM 50.7°F10.4°C 46.4°F8.0°C 85% 5.0 mph WNW8.0 kmh WNW 8.4 mph13.5 kmh 29.65 in1004.1 mb 0.00 in0.0 mm 0.00 in0.0 mm 0.02 in0.5 mm
02:12 AM 50.5°F10.3°C 46.2°F7.9°C 85% 4.8 mph WNW7.7 kmh WNW 9.9 mph15.9 kmh 29.64 in1003.7 mb 0.00 in0.0 mm 0.00 in0.0 mm 0.02 in0.5 mm
02:24 AM 50.4°F10.2°C 46.0°F7.8°C 85% 4.4 mph NW7.1 kmh NW 10.8 mph17.4 kmh 29.64 in1003.7 mb 0.00 in0.0 mm 0.00 in0.0 mm 0.02 in0.5 mm
02:36 AM 50.4°F10.2°C 46.0°F7.8°C 85% 4.5 mph W7.2 kmh W 9.3 mph15.0 kmh 29.64 in1003.7 mb 0.00 in0.0 mm 0.00 in0.0 mm 0.02 in0.5 mm
02:48 AM 50.5°F10.3°C 46.2°F7.9°C 85% 5.4 mph NW8.7 kmh NW 11.5 mph18.5 kmh 29.63 in1003.4 mb 0.00 in0.0 mm 0.00 in0.0 mm 0.02 in0.5 mm
03:00 AM 50.5°F10.3°C 46.2°F7.9°C 85% 4.7 mph NW7.6 kmh NW 9.9 mph15.9 kmh 29.63 in1003.4 mb 0.00 in0.0 mm 0.00 in0.0 mm 0.02 in0.5 mm
03:12 AM 50.2°F10.1°C 45.9°F7.7°C 85% 4.2 mph NNE6.8 kmh NNE 7.7 mph12.4 kmh 29.62 in1003.0 mb 0.00 in0.0 mm 0.00 in0.0 mm 0.02 in0.5 mm
03:24 AM 50.0°F10.0°C 45.7°F7.6°C 85% 3.8 mph W6.1 kmh W 7.7 mph12.4 kmh 29.62 in1003.0 mb 0.00 in0.0 mm 0.00 in0.0 mm 0.02 in0.5 mm
03:36 AM 50.0°F10.0°C 45.7°F7.6°C 85% 4.3 mph WNW6.9 kmh WNW 9.3 mph15.0 kmh 29.63 in1003.4 mb 0.00 in0.0 mm 0.00 in0.0 mm 0.02 in0.5 mm
03:48 AM 50.0°F10.0°C 45.7°F7.6°C 85% 3.8 mph WNW6.1 kmh WNW 8.4 mph13.5 kmh 29.62 in1003.0 mb 0.00 in0.0 mm 0.00 in0.0 mm 0.02 in0.5 mm
04:00 AM 49.8°F9.9°C 45.8°F7.7°C 86% 2.6 mph NW4.2 kmh NW 6.1 mph9.8 kmh 29.62 in1003.0 mb 0.00 in0.0 mm 0.00 in0.0 mm 0.02 in0.5 mm
04:12 AM 49.6°F9.8°C 45.9°F7.7°C 87% 3.8 mph NW6.1 kmh NW 8.4 mph13.5 kmh 29.62 in1003.0 mb 0.00 in0.0 mm 0.00 in0.0 mm 0.02 in0.5 mm
04:24 AM 49.8°F9.9°C 46.1°F7.8°C 87% 3.8 mph WNW6.1 kmh WNW 9.9 mph15.9 kmh 29.62 in1003.0 mb 0.00 in0.0 mm 0.00 in0.0 mm 0.02 in0.5 mm
04:36 AM 50.0°F10.0°C 46.0°F7.8°C 86% 3.9 mph WNW6.3 kmh WNW 9.3 mph15.0 kmh 29.62 in1003.0 mb 0.00 in0.0 mm 0.00 in0.0 mm 0.02 in0.5 mm
04:48 AM 50.0°F10.0°C 46.0°F7.8°C 86% 3.1 mph W5.0 kmh W 7.0 mph11.3 kmh 29.61 in1002.7 mb 0.00 in0.0 mm 0.00 in0.0 mm 0.02 in0.5 mm
05:00 AM 50.0°F10.0°C 46.0°F7.8°C 86% 3.6 mph W5.8 kmh W 7.7 mph12.4 kmh 29.61 in1002.7 mb 0.00 in0.0 mm 0.00 in0.0 mm 0.02 in0.5 mm
05:12 AM 49.8°F9.9°C 46.1°F7.8°C 87% 4.1 mph WSW6.6 kmh WSW 9.3 mph15.0 kmh 29.61 in1002.7 mb 0.00 in0.0 mm 0.00 in0.0 mm 0.02 in0.5 mm
05:24 AM 49.8°F9.9°C 46.4°F8.0°C 88% 3.8 mph W6.1 kmh W 7.7 mph12.4 kmh 29.61 in1002.7 mb 0.00 in0.0 mm 0.00 in0.0 mm 0.02 in0.5 mm
05:36 AM 49.6°F9.8°C 46.2°F7.9°C 88% 4.0 mph WNW6.4 kmh WNW 8.4 mph13.5 kmh 29.61 in1002.7 mb 0.00 in0.0 mm 0.00 in0.0 mm 0.02 in0.5 mm
05:48 AM 49.6°F9.8°C 46.2°F7.9°C 88% 3.5 mph W5.6 kmh W 7.7 mph12.4 kmh 29.60 in1002.4 mb 0.00 in0.0 mm 0.00 in0.0 mm 0.02 in0.5 mm
06:00 AM 49.5°F9.7°C 46.4°F8.0°C 89% 3.6 mph WSW5.8 kmh WSW 8.4 mph13.5 kmh 29.59 in1002.0 mb 0.00 in0.0 mm 0.00 in0.0 mm 0.02 in0.5 mm
06:12 AM 49.3°F9.6°C 46.2°F7.9°C 89% 3.4 mph W5.5 kmh W 7.0 mph11.3 kmh 29.59 in1002.0 mb 0.00 in0.0 mm 0.00 in0.0 mm 0.02 in0.5 mm
06:24 AM 49.5°F9.7°C 46.4°F8.0°C 89% 3.7 mph W6.0 kmh W 8.4 mph13.5 kmh 29.59 in1002.0 mb 0.00 in0.0 mm 0.00 in0.0 mm 0.02 in0.5 mm
06:36 AM 49.5°F9.7°C 46.7°F8.2°C 90% 3.6 mph W5.8 kmh W 8.4 mph13.5 kmh 29.59 in1002.0 mb 0.00 in0.0 mm 0.00 in0.0 mm 0.02 in0.5 mm
06:48 AM 49.6°F9.8°C 46.8°F8.2°C 90% 4.2 mph WNW6.8 kmh WNW 11.5 mph18.5 kmh 29.59 in1002.0 mb 0.00 in0.0 mm 0.00 in0.0 mm 0.02 in0.5 mm
07:00 AM 49.6°F9.8°C 46.8°F8.2°C 90% 3.6 mph NW5.8 kmh NW 7.7 mph12.4 kmh 29.59 in1002.0 mb 0.00 in0.0 mm 0.00 in0.0 mm 0.02 in0.5 mm
07:12 AM 49.8°F9.9°C 47.0°F8.3°C 90% 3.7 mph NW6.0 kmh NW 11.5 mph18.5 kmh 29.59 in1002.0 mb 0.00 in0.0 mm 0.00 in0.0 mm 0.02 in0.5 mm
07:24 AM 50.0°F10.0°C 46.9°F8.3°C 89% 4.4 mph W7.1 kmh W 9.3 mph15.0 kmh 29.58 in1001.7 mb 0.00 in0.0 mm 0.00 in0.0 mm 0.02 in0.5 mm
07:36 AM 50.0°F10.0°C 46.9°F8.3°C 89% 3.7 mph W6.0 kmh W 9.3 mph15.0 kmh 29.58 in1001.7 mb 0.00 in0.0 mm 0.00 in0.0 mm 0.02 in0.5 mm
07:48 AM 50.2°F10.1°C 47.1°F8.4°C 89% 4.2 mph NW6.8 kmh NW 11.5 mph18.5 kmh 29.56 in1001.0 mb 0.00 in0.0 mm 0.00 in0.0 mm 0.02 in0.5 mm
08:00 AM 50.2°F10.1°C 47.1°F8.4°C 89% 3.9 mph W6.3 kmh W 8.4 mph13.5 kmh 29.57 in1001.4 mb 0.00 in0.0 mm 0.00 in0.0 mm 0.02 in0.5 mm
08:12 AM 50.5°F10.3°C 47.7°F8.7°C 90% 3.6 mph NW5.8 kmh NW 9.3 mph15.0 kmh 29.56 in1001.0 mb 0.00 in0.0 mm 0.00 in0.0 mm 0.02 in0.5 mm
08:24 AM 50.9°F10.5°C 48.1°F8.9°C 90% 3.7 mph WNW6.0 kmh WNW 7.7 mph12.4 kmh 29.55 in1000.7 mb 0.00 in0.0 mm 0.00 in0.0 mm 0.02 in0.5 mm
08:36 AM 50.9°F10.5°C 48.1°F8.9°C 90% 3.4 mph W5.5 kmh W 8.4 mph13.5 kmh 29.55 in1000.7 mb 0.00 in0.0 mm 0.00 in0.0 mm 0.02 in0.5 mm
08:48 AM 51.3°F10.7°C 48.4°F9.1°C 90% 3.8 mph W6.1 kmh W 9.3 mph15.0 kmh 29.55 in1000.7 mb 0.00 in0.0 mm 0.00 in0.0 mm 0.02 in0.5 mm
09:00 AM 51.4°F10.8°C 48.6°F9.2°C 90% 3.8 mph W6.1 kmh W 10.8 mph17.4 kmh 29.54 in1000.3 mb 0.00 in0.0 mm 0.00 in0.0 mm 0.02 in0.5 mm
09:12 AM 51.4°F10.8°C 48.3°F9.1°C 89% 3.5 mph NW5.6 kmh NW 12.2 mph19.6 kmh 29.54 in1000.3 mb 0.00 in0.0 mm 0.00 in0.0 mm 0.02 in0.5 mm
09:24 AM 51.1°F10.6°C 48.0°F8.9°C 89% 3.7 mph WNW6.0 kmh WNW 9.3 mph15.0 kmh 29.54 in1000.3 mb 0.01 in0.3 mm 0.05 in1.3 mm 0.04 in1.0 mm
09:36 AM 51.1°F10.6°C 48.0°F8.9°C 89% 3.9 mph W6.3 kmh W 10.8 mph17.4 kmh 29.53 in1000.0 mb 0.01 in0.3 mm 0.00 in0.0 mm 0.04 in1.0 mm
09:48 AM 51.1°F10.6°C 48.0°F8.9°C 89% 3.4 mph W5.5 kmh W 7.7 mph12.4 kmh 29.52 in999.7 mb 0.01 in0.3 mm 0.00 in0.0 mm 0.04 in1.0 mm
10:00 AM 51.4°F10.8°C 48.6°F9.2°C 90% 3.9 mph W6.3 kmh W 9.9 mph15.9 kmh 29.52 in999.7 mb 0.01 in0.3 mm 0.00 in0.0 mm 0.04 in1.0 mm
10:12 AM 52.0°F11.1°C 48.5°F9.2°C 88% 5.2 mph NW8.4 kmh NW 11.5 mph18.5 kmh 29.51 in999.3 mb 0.01 in0.3 mm 0.00 in0.0 mm 0.04 in1.0 mm
10:24 AM 52.7°F11.5°C 48.9°F9.4°C 87% 5.6 mph WNW9.0 kmh WNW 13.8 mph22.2 kmh 29.50 in999.0 mb 0.00 in0.0 mm 0.00 in0.0 mm 0.04 in1.0 mm
10:36 AM 52.9°F11.6°C 48.5°F9.2°C 85% 5.0 mph NW8.0 kmh NW 10.8 mph17.4 kmh 29.50 in999.0 mb 0.00 in0.0 mm 0.00 in0.0 mm 0.04 in1.0 mm
10:48 AM 52.9°F11.6°C 48.5°F9.2°C 85% 5.9 mph W9.5 kmh W 12.2 mph19.6 kmh 29.49 in998.6 mb 0.00 in0.0 mm 0.00 in0.0 mm 0.04 in1.0 mm
11:00 AM 52.9°F11.6°C 48.5°F9.2°C 85% 5.8 mph WNW9.3 kmh WNW 15.4 mph24.8 kmh 29.49 in998.6 mb 0.00 in0.0 mm 0.00 in0.0 mm 0.04 in1.0 mm
11:12 AM 53.1°F11.7°C 48.7°F9.3°C 85% 5.1 mph SW8.2 kmh SW 12.2 mph19.6 kmh 29.48 in998.3 mb 0.00 in0.0 mm 0.00 in0.0 mm 0.04 in1.0 mm
11:24 AM 53.2°F11.8°C 49.2°F9.6°C 86% 5.5 mph WNW8.9 kmh WNW 13.1 mph21.1 kmh 29.48 in998.3 mb 0.00 in0.0 mm 0.00 in0.0 mm 0.04 in1.0 mm
11:36 AM 53.6°F12.0°C 49.5°F9.7°C 86% 6.0 mph W9.7 kmh W 13.8 mph22.2 kmh 29.47 in998.0 mb 0.00 in0.0 mm 0.00 in0.0 mm 0.04 in1.0 mm
11:48 AM 53.6°F12.0°C 49.5°F9.7°C 86% 6.2 mph W10.0 kmh W 13.1 mph21.1 kmh 29.47 in998.0 mb 0.00 in0.0 mm 0.00 in0.0 mm 0.04 in1.0 mm
12:00 PM 53.2°F11.8°C 48.9°F9.4°C 85% 7.9 mph WNW12.7 kmh WNW 19.9 mph32.0 kmh 29.50 in999.0 mb 0.01 in0.3 mm 0.01 in0.3 mm 0.05 in1.3 mm
12:12 PM 48.4°F9.1°C 43.8°F6.6°C 84% 6.2 mph NW10.0 kmh NW 14.7 mph23.7 kmh 29.50 in999.0 mb 0.04 in1.0 mm 0.15 in3.8 mm 0.07 in1.8 mm
12:24 PM 48.2°F9.0°C 44.2°F6.8°C 86% 4.8 mph W7.7 kmh W 9.9 mph15.9 kmh 29.50 in999.0 mb 0.05 in1.3 mm 0.05 in1.3 mm 0.08 in2.0 mm
12:36 PM 48.4°F9.1°C 45.0°F7.2°C 88% 5.6 mph W9.0 kmh W 11.5 mph18.5 kmh 29.50 in999.0 mb 0.05 in1.3 mm 0.00 in0.0 mm 0.08 in2.0 mm
12:48 PM 48.6°F9.2°C 45.2°F7.3°C 88% 5.9 mph NW9.5 kmh NW 16.9 mph27.2 kmh 29.51 in999.3 mb 0.05 in1.3 mm 0.00 in0.0 mm 0.08 in2.0 mm
01:00 PM 47.5°F8.6°C 44.1°F6.7°C 88% 7.1 mph WNW11.4 kmh WNW 13.8 mph22.2 kmh 29.51 in999.3 mb 0.04 in1.0 mm 0.00 in0.0 mm 0.08 in2.0 mm
01:12 PM 47.7°F8.7°C 44.3°F6.8°C 88% 5.0 mph WNW8.0 kmh WNW 12.2 mph19.6 kmh 29.51 in999.3 mb 0.02 in0.5 mm 0.00 in0.0 mm 0.09 in2.3 mm
01:24 PM 47.1°F8.4°C 43.8°F6.6°C 88% 5.0 mph W8.0 kmh W 9.9 mph15.9 kmh 29.52 in999.7 mb 0.01 in0.3 mm 0.00 in0.0 mm 0.09 in2.3 mm
01:36 PM 46.9°F8.3°C 43.3°F6.3°C 87% 4.4 mph W7.1 kmh W 10.8 mph17.4 kmh 29.52 in999.7 mb 0.02 in0.5 mm 0.05 in1.3 mm 0.11 in2.8 mm
01:48 PM 46.6°F8.1°C 42.9°F6.1°C 87% 6.1 mph NW9.8 kmh NW 12.2 mph19.6 kmh 29.52 in999.7 mb 0.04 in1.0 mm 0.10 in2.5 mm 0.12 in3.0 mm
02:00 PM 46.2°F7.9°C 42.9°F6.1°C 88% 5.6 mph WNW9.0 kmh WNW 9.3 mph15.0 kmh 29.53 in1000.0 mb 0.05 in1.3 mm 0.01 in0.3 mm 0.13 in3.3 mm
02:12 PM 46.0°F7.8°C 43.0°F6.1°C 89% 4.6 mph WNW7.4 kmh WNW 10.8 mph17.4 kmh 29.52 in999.7 mb 0.04 in1.0 mm 0.00 in0.0 mm 0.13 in3.3 mm
02:24 PM 46.0°F7.8°C 43.0°F6.1°C 89% 5.8 mph WNW9.3 kmh WNW 12.2 mph19.6 kmh 29.52 in999.7 mb 0.04 in1.0 mm 0.00 in0.0 mm 0.13 in3.3 mm
02:36 PM 46.2°F7.9°C 43.2°F6.2°C 89% 6.6 mph WNW10.6 kmh WNW 15.4 mph24.8 kmh 29.52 in999.7 mb 0.02 in0.5 mm 0.00 in0.0 mm 0.13 in3.3 mm
02:48 PM 46.4°F8.0°C 42.7°F5.9°C 87% 6.6 mph WNW10.6 kmh WNW 13.8 mph22.2 kmh 29.53 in1000.0 mb 0.01 in0.3 mm 0.00 in0.0 mm 0.13 in3.3 mm
03:00 PM 47.1°F8.4°C 43.2°F6.2°C 86% 6.9 mph WNW11.1 kmh WNW 13.8 mph22.2 kmh 29.53 in1000.0 mb 0.00 in0.0 mm 0.00 in0.0 mm 0.13 in3.3 mm
03:12 PM 47.5°F8.6°C 42.9°F6.1°C 84% 7.2 mph NW11.6 kmh NW 14.7 mph23.7 kmh 29.53 in1000.0 mb 0.00 in0.0 mm 0.00 in0.0 mm 0.13 in3.3 mm
03:24 PM 49.1°F9.5°C 43.2°F6.2°C 80% 7.4 mph NW11.9 kmh NW 16.0 mph25.7 kmh 29.52 in999.7 mb 0.00 in0.0 mm 0.00 in0.0 mm 0.13 in3.3 mm
03:36 PM 50.2°F10.1°C 42.6°F5.9°C 75% 8.0 mph NW12.9 kmh NW 17.6 mph28.3 kmh 29.53 in1000.0 mb 0.01 in0.3 mm 0.05 in1.3 mm 0.14 in3.6 mm
03:48 PM 49.6°F9.8°C 42.0°F5.6°C 75% 7.9 mph WNW12.7 kmh WNW 14.7 mph23.7 kmh 29.54 in1000.3 mb 0.01 in0.3 mm 0.00 in0.0 mm 0.14 in3.6 mm
04:00 PM 49.3°F9.6°C 41.4°F5.2°C 74% 8.6 mph NW13.8 kmh NW 18.5 mph29.8 kmh 29.55 in1000.7 mb 0.01 in0.3 mm 0.00 in0.0 mm 0.14 in3.6 mm
04:12 PM 49.1°F9.5°C 41.2°F5.1°C 74% 8.0 mph WNW12.9 kmh WNW 16.0 mph25.7 kmh 29.55 in1000.7 mb 0.01 in0.3 mm 0.00 in0.0 mm 0.14 in3.6 mm
04:24 PM 49.1°F9.5°C 41.2°F5.1°C 74% 6.5 mph WNW10.5 kmh WNW 12.2 mph19.6 kmh 29.55 in1000.7 mb 0.01 in0.3 mm 0.00 in0.0 mm 0.14 in3.6 mm
04:36 PM 49.5°F9.7°C 41.5°F5.3°C 74% 6.6 mph WNW10.6 kmh WNW 13.1 mph21.1 kmh 29.56 in1001.0 mb 0.00 in0.0 mm 0.00 in0.0 mm 0.14 in3.6 mm
04:48 PM 49.3°F9.6°C 41.4°F5.2°C 74% 7.6 mph NW12.2 kmh NW 15.4 mph24.8 kmh 29.56 in1001.0 mb 0.00 in0.0 mm 0.00 in0.0 mm 0.14 in3.6 mm
05:00 PM 49.1°F9.5°C 40.8°F4.9°C 73% 7.2 mph WNW11.6 kmh WNW 11.5 mph18.5 kmh 29.57 in1001.4 mb 0.00 in0.0 mm 0.00 in0.0 mm 0.14 in3.6 mm
05:12 PM 49.1°F9.5°C 40.8°F4.9°C 73% 7.7 mph WNW12.4 kmh WNW 10.8 mph17.4 kmh 29.57 in1001.4 mb 0.00 in0.0 mm 0.00 in0.0 mm 0.14 in3.6 mm
05:24 PM 48.7°F9.3°C 40.5°F4.7°C 73% 5.1 mph W8.2 kmh W 10.8 mph17.4 kmh 29.57 in1001.4 mb 0.00 in0.0 mm 0.00 in0.0 mm 0.14 in3.6 mm
05:36 PM 48.7°F9.3°C 39.4°F4.1°C 70% 6.0 mph WNW9.7 kmh WNW 13.8 mph22.2 kmh 29.57 in1001.4 mb 0.00 in0.0 mm 0.00 in0.0 mm 0.14 in3.6 mm
05:48 PM 48.4°F9.1°C 39.1°F3.9°C 70% 6.0 mph WNW9.7 kmh WNW 13.1 mph21.1 kmh 29.57 in1001.4 mb 0.00 in0.0 mm 0.00 in0.0 mm 0.14 in3.6 mm
06:00 PM 47.7°F8.7°C 39.4°F4.1°C 73% 4.7 mph W7.6 kmh W 9.3 mph15.0 kmh 29.58 in1001.7 mb 0.00 in0.0 mm 0.00 in0.0 mm 0.14 in3.6 mm
06:12 PM 46.9°F8.3°C 39.1°F3.9°C 74% 3.7 mph W6.0 kmh W 7.7 mph12.4 kmh 29.59 in1002.0 mb 0.00 in0.0 mm 0.00 in0.0 mm 0.14 in3.6 mm
06:24 PM 46.2°F7.9°C 39.1°F3.9°C 76% 2.4 mph W3.9 kmh W 5.4 mph8.7 kmh 29.59 in1002.0 mb 0.00 in0.0 mm 0.00 in0.0 mm 0.14 in3.6 mm
06:36 PM 45.7°F7.6°C 39.2°F4.0°C 78% 1.6 mph W2.6 kmh W 4.5 mph7.2 kmh 29.59 in1002.0 mb 0.00 in0.0 mm 0.00 in0.0 mm 0.14 in3.6 mm
06:48 PM 45.1°F7.3°C 38.7°F3.7°C 78% 2.6 mph WSW4.2 kmh WSW 5.4 mph8.7 kmh 29.59 in1002.0 mb 0.00 in0.0 mm 0.00 in0.0 mm 0.14 in3.6 mm
07:00 PM 44.6°F7.0°C 38.2°F3.4°C 78% 1.7 mph W2.7 kmh W 3.2 mph5.1 kmh 29.60 in1002.4 mb 0.00 in0.0 mm 0.00 in0.0 mm 0.14 in3.6 mm
07:12 PM 44.1°F6.7°C 38.0°F3.3°C 79% 1.0 mph WSW1.6 kmh WSW 2.3 mph3.7 kmh 29.60 in1002.4 mb 0.00 in0.0 mm 0.00 in0.0 mm 0.14 in3.6 mm
07:24 PM 43.7°F6.5°C 37.9°F3.3°C 80% 1.0 mph W1.6 kmh W 3.2 mph5.1 kmh 29.60 in1002.4 mb 0.00 in0.0 mm 0.00 in0.0 mm 0.14 in3.6 mm
07:36 PM 43.3°F6.3°C 37.9°F3.3°C 81% 1.5 mph W2.4 kmh W 3.8 mph6.1 kmh 29.60 in1002.4 mb 0.00 in0.0 mm 0.00 in0.0 mm 0.14 in3.6 mm
07:48 PM 43.2°F6.2°C 37.7°F3.2°C 81% 1.7 mph W2.7 kmh W 5.4 mph8.7 kmh 29.60 in1002.4 mb 0.00 in0.0 mm 0.00 in0.0 mm 0.14 in3.6 mm
08:00 PM 43.2°F6.2°C 38.0°F3.3°C 82% 1.4 mph W2.3 kmh W 3.8 mph6.1 kmh 29.61 in1002.7 mb 0.00 in0.0 mm 0.00 in0.0 mm 0.14 in3.6 mm
08:12 PM 42.6°F5.9°C 37.8°F3.2°C 83% 0.3 mph W0.5 kmh W 2.3 mph3.7 kmh 29.61 in1002.7 mb 0.00 in0.0 mm 0.00 in0.0 mm 0.14 in3.6 mm
08:24 PM 43.0°F6.1°C 37.9°F3.3°C 82% 2.2 mph WNW3.5 kmh WNW 4.5 mph7.2 kmh 29.61 in1002.7 mb 0.00 in0.0 mm 0.00 in0.0 mm 0.14 in3.6 mm
08:36 PM 43.3°F6.3°C 38.2°F3.4°C 82% 3.8 mph WNW6.1 kmh WNW 8.4 mph13.5 kmh 29.61 in1002.7 mb 0.00 in0.0 mm 0.00 in0.0 mm 0.14 in3.6 mm
08:48 PM 43.3°F6.3°C 37.9°F3.3°C 81% 4.3 mph W6.9 kmh W 11.5 mph18.5 kmh 29.62 in1003.0 mb 0.00 in0.0 mm 0.00 in0.0 mm 0.14 in3.6 mm
09:00 PM 43.7°F6.5°C 37.0°F2.8°C 77% 5.2 mph WNW8.4 kmh WNW 12.2 mph19.6 kmh 29.61 in1002.7 mb 0.00 in0.0 mm 0.00 in0.0 mm 0.14 in3.6 mm
09:12 PM 43.5°F6.4°C 35.8°F2.1°C 74% 4.7 mph WNW7.6 kmh WNW 9.3 mph15.0 kmh 29.61 in1002.7 mb 0.00 in0.0 mm 0.00 in0.0 mm 0.14 in3.6 mm
09:24 PM 42.8°F6.0°C 35.1°F1.7°C 74% 3.7 mph WNW6.0 kmh WNW 7.7 mph12.4 kmh 29.62 in1003.0 mb 0.00 in0.0 mm 0.00 in0.0 mm 0.14 in3.6 mm
09:36 PM 42.3°F5.7°C 35.6°F2.0°C 77% 3.2 mph W5.1 kmh W 6.1 mph9.8 kmh 29.61 in1002.7 mb 0.00 in0.0 mm 0.00 in0.0 mm 0.14 in3.6 mm
09:48 PM 42.1°F5.6°C 35.4°F1.9°C 77% 3.2 mph W5.1 kmh W 7.0 mph11.3 kmh 29.61 in1002.7 mb 0.00 in0.0 mm 0.00 in0.0 mm 0.14 in3.6 mm
10:00 PM 42.3°F5.7°C 35.2°F1.8°C 76% 4.3 mph WNW6.9 kmh WNW 9.9 mph15.9 kmh 29.62 in1003.0 mb 0.00 in0.0 mm 0.00 in0.0 mm 0.14 in3.6 mm
10:12 PM 42.4°F5.8°C 35.1°F1.7°C 75% 5.6 mph WNW9.0 kmh WNW 13.8 mph22.2 kmh 29.62 in1003.0 mb 0.00 in0.0 mm 0.00 in0.0 mm 0.14 in3.6 mm
10:24 PM 42.6°F5.9°C 34.9°F1.6°C 74% 6.4 mph NW10.3 kmh NW 14.7 mph23.7 kmh 29.62 in1003.0 mb 0.00 in0.0 mm 0.00 in0.0 mm 0.14 in3.6 mm
10:36 PM 42.4°F5.8°C 34.8°F1.6°C 74% 5.3 mph NW8.5 kmh NW 13.1 mph21.1 kmh 29.63 in1003.4 mb 0.00 in0.0 mm 0.00 in0.0 mm 0.14 in3.6 mm
10:48 PM 42.3°F5.7°C 34.9°F1.6°C 75% 5.5 mph WNW8.9 kmh WNW 10.8 mph17.4 kmh 29.62 in1003.0 mb 0.00 in0.0 mm 0.00 in0.0 mm 0.14 in3.6 mm
11:00 PM 42.1°F5.6°C 34.7°F1.5°C 75% 5.4 mph WNW8.7 kmh WNW 9.9 mph15.9 kmh 29.63 in1003.4 mb 0.00 in0.0 mm 0.00 in0.0 mm 0.14 in3.6 mm
11:12 PM 41.7°F5.4°C 34.7°F1.5°C 76% 4.1 mph WNW6.6 kmh WNW 9.3 mph15.0 kmh 29.62 in1003.0 mb 0.00 in0.0 mm 0.00 in0.0 mm 0.14 in3.6 mm
11:24 PM 41.5°F5.3°C 34.5°F1.4°C 76% 3.7 mph NW6.0 kmh NW 9.3 mph15.0 kmh 29.63 in1003.4 mb 0.00 in0.0 mm 0.00 in0.0 mm 0.14 in3.6 mm
11:36 PM 41.4°F5.2°C 34.4°F1.3°C 76% 4.2 mph NW6.8 kmh NW 9.9 mph15.9 kmh 29.63 in1003.4 mb 0.00 in0.0 mm 0.00 in0.0 mm 0.14 in3.6 mm
11:48 PM 41.2°F5.1°C 34.5°F1.4°C 77% 3.4 mph WNW5.5 kmh WNW 7.7 mph12.4 kmh 29.62 in1003.0 mb 0.00 in0.0 mm 0.00 in0.0 mm 0.14 in3.6 mm